createdAt,value
2017-04-02T00:00:35.999Z,0
2017-04-02T00:01:36.005Z,0
2017-04-02T00:02:35.752Z,0
2017-04-02T00:03:50.586Z,0
2017-04-02T00:04:36.075Z,0
2017-04-02T00:05:36.029Z,0
2017-04-02T00:06:36.035Z,0
2017-04-02T00:07:36.795Z,0
2017-04-02T00:08:35.782Z,0
2017-04-02T00:09:36.102Z,0
2017-04-02T00:10:36.163Z,0
2017-04-02T00:11:37.315Z,0
2017-04-02T00:12:36.068Z,0
2017-04-02T00:13:35.862Z,0
2017-04-02T00:14:35.819Z,0
2017-04-02T00:15:36.139Z,0
2017-04-02T00:16:35.781Z,0
2017-04-02T00:17:36.099Z,0
2017-04-02T00:18:36.453Z,0
2017-04-02T00:19:36.212Z,0
2017-04-02T00:20:35.801Z,0
2017-04-02T00:21:36.221Z,0
2017-04-02T00:22:36.711Z,0
2017-04-02T00:23:36.236Z,0
2017-04-02T00:24:35.611Z,0
2017-04-02T00:25:35.879Z,0
2017-04-02T00:26:35.522Z,0
2017-04-02T00:27:36.202Z,0
2017-04-02T00:28:36.210Z,0
2017-04-02T00:29:35.921Z,0
2017-04-02T00:30:35.645Z,0
2017-04-02T00:31:37.854Z,0
2017-04-02T00:32:36.185Z,0
2017-04-02T00:33:51.756Z,0
2017-04-02T00:34:36.191Z,0
2017-04-02T00:35:36.251Z,0
2017-04-02T00:36:36.193Z,0
2017-04-02T00:37:36.258Z,0
2017-04-02T00:38:36.372Z,0
2017-04-02T00:39:36.322Z,0
2017-04-02T00:40:36.016Z,0
2017-04-02T00:41:35.919Z,0
2017-04-02T00:42:37.540Z,0
2017-04-02T00:43:36.293Z,0
2017-04-02T00:44:36.336Z,0
2017-04-02T00:45:36.359Z,0
2017-04-02T00:46:36.261Z,0
2017-04-02T00:47:36.365Z,0
2017-04-02T00:48:36.270Z,0
2017-04-02T00:49:36.279Z,0
2017-04-02T00:50:36.022Z,0
2017-04-02T00:51:35.977Z,0
2017-04-02T00:52:36.032Z,0
2017-04-02T00:53:37.252Z,0
2017-04-02T00:54:35.993Z,0
2017-04-02T00:55:36.360Z,0
2017-04-02T00:56:35.746Z,0
2017-04-02T00:57:37.473Z,0
2017-04-02T00:58:36.431Z,0
2017-04-02T00:59:35.818Z,0
2017-04-02T01:00:36.340Z,0
2017-04-02T01:01:36.034Z,0
2017-04-02T01:02:36.404Z,0
2017-04-02T01:03:36.357Z,0
2017-04-02T01:04:37.014Z,0
2017-04-02T01:05:36.207Z,0
2017-04-02T01:06:36.422Z,0
2017-04-02T01:07:36.118Z,0
2017-04-02T01:08:37.334Z,0
2017-04-02T01:09:36.081Z,0
2017-04-02T01:10:36.448Z,0
2017-04-02T01:11:36.138Z,0
2017-04-02T01:12:36.711Z,0
2017-04-02T01:13:36.415Z,0
2017-04-02T01:14:36.468Z,0
2017-04-02T01:15:36.428Z,0
2017-04-02T01:16:36.122Z,0
2017-04-02T01:17:36.437Z,0
2017-04-02T01:18:36.496Z,0
2017-04-02T01:19:36.899Z,0
2017-04-02T01:20:36.551Z,0
2017-04-02T01:21:36.464Z,0
2017-04-02T01:22:36.616Z,0
2017-04-02T01:23:36.471Z,0
2017-04-02T01:24:35.853Z,0
2017-04-02T01:25:36.536Z,0
2017-04-02T01:26:36.488Z,0
2017-04-02T01:27:36.540Z,0
2017-04-02T01:28:37.800Z,0
2017-04-02T01:29:36.296Z,0
2017-04-02T01:30:36.616Z,0
2017-04-02T01:31:36.572Z,0
2017-04-02T01:32:36.525Z,0
2017-04-02T01:33:36.576Z,0
2017-04-02T01:34:36.581Z,0
2017-04-02T01:35:36.276Z,0
2017-04-02T01:36:36.598Z,0
2017-04-02T01:37:36.652Z,0
2017-04-02T01:38:35.932Z,0
2017-04-02T01:39:37.540Z,0
2017-04-02T01:40:36.569Z,0
2017-04-02T01:41:36.860Z,0
2017-04-02T01:42:36.631Z,0
2017-04-02T01:43:37.556Z,0
2017-04-02T01:44:36.641Z,0
2017-04-02T01:45:36.335Z,0
2017-04-02T01:46:36.346Z,0
2017-04-02T01:47:36.607Z,0
2017-04-02T01:48:36.660Z,0
2017-04-02T01:49:36.622Z,0
2017-04-02T01:50:37.425Z,0
2017-04-02T01:51:36.366Z,0
2017-04-02T01:52:36.674Z,0
2017-04-02T01:53:36.744Z,0
2017-04-02T01:54:37.696Z,0
2017-04-02T01:55:36.703Z,0
2017-04-02T01:56:36.755Z,0
2017-04-02T01:57:36.359Z,0
2017-04-02T01:58:36.666Z,0
2017-04-02T01:59:36.777Z,0
2017-04-02T02:00:36.363Z,0
2017-04-02T02:01:36.375Z,0
2017-04-02T02:02:36.429Z,0
2017-04-02T02:03:50.954Z,0
2017-04-02T02:04:36.497Z,0
2017-04-02T02:05:37.508Z,0
2017-04-02T02:06:36.403Z,0
2017-04-02T02:07:36.458Z,0
2017-04-02T02:08:36.724Z,0
2017-04-02T02:09:36.525Z,0
2017-04-02T02:10:36.735Z,0
2017-04-02T02:11:36.174Z,0
2017-04-02T02:12:36.485Z,0
2017-04-02T02:13:37.409Z,0
2017-04-02T02:14:36.200Z,0
2017-04-02T02:15:37.112Z,0
2017-04-02T02:16:37.326Z,0
2017-04-02T02:17:36.782Z,0
2017-04-02T02:18:36.466Z,0
2017-04-02T02:19:36.783Z,0
2017-04-02T02:20:36.791Z,0
2017-04-02T02:21:36.483Z,0
2017-04-02T02:22:36.226Z,0
2017-04-02T02:23:36.906Z,0
2017-04-02T02:24:36.912Z,0
2017-04-02T02:25:37.845Z,0
2017-04-02T02:26:36.563Z,0
2017-04-02T02:27:37.332Z,0
2017-04-02T02:28:36.518Z,0
2017-04-02T02:29:36.933Z,0
2017-04-02T02:30:37.409Z,0
2017-04-02T02:31:36.852Z,0
2017-04-02T02:32:36.908Z,0
2017-04-02T02:33:51.169Z,0
2017-04-02T02:34:36.662Z,0
2017-04-02T02:35:36.610Z,0
2017-04-02T02:36:36.254Z,0
2017-04-02T02:37:36.986Z,0
2017-04-02T02:38:37.942Z,0
2017-04-02T02:39:36.998Z,0
2017-04-02T02:40:36.788Z,0
2017-04-02T02:41:36.596Z,0
2017-04-02T02:42:36.914Z,0
2017-04-02T02:43:36.970Z,0
2017-04-02T02:44:36.664Z,0
2017-04-02T02:45:36.927Z,0
2017-04-02T02:46:36.672Z,0
2017-04-02T02:47:36.726Z,0
2017-04-02T02:48:36.632Z,0
2017-04-02T02:49:37.653Z,0
2017-04-02T02:50:36.957Z,0
2017-04-02T02:51:36.961Z,0
2017-04-02T02:52:37.023Z,0
2017-04-02T02:53:37.022Z,0
2017-04-02T02:54:37.083Z,0
2017-04-02T02:55:37.083Z,0
2017-04-02T02:56:36.987Z,0
2017-04-02T02:57:37.041Z,0
2017-04-02T02:58:37.051Z,0
2017-04-02T02:59:37.058Z,0
2017-04-02T03:00:37.516Z,0
2017-04-02T03:01:37.119Z,0
2017-04-02T03:02:36.818Z,0
2017-04-02T03:03:51.597Z,0
2017-04-02T03:04:37.039Z,0
2017-04-02T03:05:37.045Z,0
2017-04-02T03:06:37.095Z,0
2017-04-02T03:07:36.841Z,0
2017-04-02T03:08:37.105Z,0
2017-04-02T03:09:36.799Z,0
2017-04-02T03:10:37.071Z,0
2017-04-02T03:11:36.902Z,0
2017-04-02T03:12:36.819Z,0
2017-04-02T03:13:38.541Z,0
2017-04-02T03:14:37.139Z,0
2017-04-02T03:15:37.451Z,0
2017-04-02T03:16:37.152Z,0
2017-04-02T03:17:37.156Z,0
2017-04-02T03:18:37.113Z,0
2017-04-02T03:19:37.117Z,0
2017-04-02T03:20:37.125Z,0
2017-04-02T03:21:37.179Z,0
2017-04-02T03:22:37.174Z,0
2017-04-02T03:23:36.981Z,0
2017-04-02T03:24:38.600Z,0
2017-04-02T03:25:37.150Z,0
2017-04-02T03:26:37.319Z,0
2017-04-02T03:27:37.270Z,0
2017-04-02T03:28:37.216Z,0
2017-04-02T03:29:37.225Z,0
2017-04-02T03:30:37.165Z,0
2017-04-02T03:31:37.236Z,0
2017-04-02T03:32:36.930Z,0
2017-04-02T03:33:36.935Z,0
2017-04-02T03:34:37.252Z,0
2017-04-02T03:35:38.108Z,0
2017-04-02T03:36:37.260Z,0
2017-04-02T03:37:37.295Z,0
2017-04-02T03:38:37.224Z,0
2017-04-02T03:39:37.230Z,0
2017-04-02T03:40:37.285Z,0
2017-04-02T03:41:36.666Z,0
2017-04-02T03:42:36.932Z,0
2017-04-02T03:43:37.248Z,0
2017-04-02T03:44:37.307Z,0
2017-04-02T03:45:37.264Z,0
2017-04-02T03:46:38.795Z,0
2017-04-02T03:47:36.649Z,0
2017-04-02T03:48:37.527Z,0
2017-04-02T03:49:37.072Z,0
2017-04-02T03:50:37.392Z,0
2017-04-02T03:51:37.299Z,0
2017-04-02T03:52:37.505Z,0
2017-04-02T03:53:37.308Z,0
2017-04-02T03:54:37.363Z,0
2017-04-02T03:55:37.008Z,0
2017-04-02T03:56:37.375Z,0
2017-04-02T03:57:38.617Z,0
2017-04-02T03:58:37.434Z,0
2017-04-02T03:59:37.443Z,0
2017-04-02T04:00:37.033Z,0
2017-04-02T04:01:37.364Z,0
2017-04-02T04:02:37.411Z,0
2017-04-02T04:03:37.412Z,0
2017-04-02T04:04:37.413Z,0
2017-04-02T04:05:37.512Z,0
2017-04-02T04:06:36.805Z,0
2017-04-02T04:07:37.682Z,0
2017-04-02T04:08:38.539Z,0
2017-04-02T04:09:37.693Z,0
2017-04-02T04:10:37.448Z,0
2017-04-02T04:11:37.412Z,0
2017-04-02T04:12:38.563Z,0
2017-04-02T04:13:37.417Z,0
2017-04-02T04:14:37.111Z,0
2017-04-02T04:15:37.219Z,0
2017-04-02T04:16:37.481Z,0
2017-04-02T04:17:37.540Z,0
2017-04-02T04:18:37.491Z,0
2017-04-02T04:19:38.298Z,0
2017-04-02T04:20:37.454Z,0
2017-04-02T04:21:37.512Z,0
2017-04-02T04:22:37.471Z,0
2017-04-02T04:23:38.610Z,0
2017-04-02T04:24:37.166Z,0
2017-04-02T04:25:37.521Z,0
2017-04-02T04:26:37.536Z,0
2017-04-02T04:27:37.235Z,0
2017-04-02T04:28:37.500Z,0
2017-04-02T04:29:37.505Z,0
2017-04-02T04:30:37.562Z,0
2017-04-02T04:31:37.566Z,0
2017-04-02T04:32:36.982Z,0
2017-04-02T04:33:51.833Z,0
2017-04-02T04:34:38.328Z,0
2017-04-02T04:35:37.539Z,0
2017-04-02T04:36:37.278Z,0
2017-04-02T04:37:37.704Z,0
2017-04-02T04:38:37.558Z,0
2017-04-02T04:39:37.662Z,0
2017-04-02T04:40:37.674Z,0
2017-04-02T04:41:37.574Z,0
2017-04-02T04:42:37.726Z,0
2017-04-02T04:43:37.604Z,0
2017-04-02T04:44:37.321Z,0
2017-04-02T04:45:38.318Z,0
2017-04-02T04:46:37.598Z,0
2017-04-02T04:47:37.291Z,0
2017-04-02T04:48:37.710Z,0
2017-04-02T04:49:37.303Z,0
2017-04-02T04:50:37.669Z,0
2017-04-02T04:51:37.368Z,0
2017-04-02T04:52:37.633Z,0
2017-04-02T04:53:37.633Z,0
2017-04-02T04:54:37.693Z,4
2017-04-02T04:55:37.851Z,4
2017-04-02T04:56:38.255Z,4
2017-04-02T04:57:37.710Z,4
2017-04-02T04:58:37.542Z,4
2017-04-02T04:59:37.364Z,0
2017-04-02T05:00:37.729Z,0
2017-04-02T05:01:37.683Z,0
2017-04-02T05:02:37.688Z,4
2017-04-02T05:03:37.428Z,4
2017-04-02T05:04:37.440Z,4
2017-04-02T05:05:37.844Z,4
2017-04-02T05:06:37.764Z,4
2017-04-02T05:07:38.402Z,4
2017-04-02T05:08:37.719Z,4
2017-04-02T05:09:37.776Z,4
2017-04-02T05:10:37.773Z,4
2017-04-02T05:11:37.739Z,4
2017-04-02T05:12:37.742Z,8
2017-04-02T05:13:37.749Z,8
2017-04-02T05:14:37.751Z,8
2017-04-02T05:15:37.448Z,4
2017-04-02T05:16:37.816Z,8
2017-04-02T05:17:37.773Z,8
2017-04-02T05:18:38.362Z,8
2017-04-02T05:19:37.830Z,8
2017-04-02T05:20:37.787Z,8
2017-04-02T05:21:37.847Z,12
2017-04-02T05:22:37.846Z,8
2017-04-02T05:23:37.901Z,12
2017-04-02T05:24:37.235Z,12
2017-04-02T05:25:37.603Z,12
2017-04-02T05:26:37.822Z,16
2017-04-02T05:27:37.925Z,16
2017-04-02T05:28:37.833Z,16
2017-04-02T05:29:38.542Z,16
2017-04-02T05:30:37.892Z,20
2017-04-02T05:31:37.948Z,20
2017-04-02T05:32:37.539Z,20
2017-04-02T05:33:53.396Z,24
2017-04-02T05:34:37.867Z,28
2017-04-02T05:35:37.598Z,28
2017-04-02T05:36:37.925Z,28
2017-04-02T05:37:37.928Z,28
2017-04-02T05:38:37.884Z,28
2017-04-02T05:39:37.893Z,32
2017-04-02T05:40:38.337Z,32
2017-04-02T05:41:37.277Z,32
2017-04-02T05:42:37.958Z,36
2017-04-02T05:43:37.917Z,36
2017-04-02T05:44:38.868Z,44
2017-04-02T05:45:37.923Z,48
2017-04-02T05:46:37.673Z,48
2017-04-02T05:47:38.036Z,52
2017-04-02T05:48:37.677Z,52
2017-04-02T05:49:37.369Z,56
2017-04-02T05:50:38.004Z,56
2017-04-02T05:51:38.611Z,56
2017-04-02T05:52:37.960Z,64
2017-04-02T05:53:38.043Z,68
2017-04-02T05:54:38.024Z,72
2017-04-02T05:55:38.731Z,76
2017-04-02T05:56:37.993Z,80
2017-04-02T05:57:37.991Z,84
2017-04-02T05:58:37.734Z,88
2017-04-02T05:59:37.695Z,96
2017-04-02T06:00:38.056Z,100
2017-04-02T06:01:38.013Z,112
2017-04-02T06:02:38.167Z,120
2017-04-02T06:03:38.075Z,132
2017-04-02T06:04:37.454Z,144
2017-04-02T06:05:37.974Z,152
2017-04-02T06:06:38.498Z,168
2017-04-02T06:07:38.048Z,176
2017-04-02T06:08:37.738Z,176
2017-04-02T06:09:38.057Z,172
2017-04-02T06:10:38.115Z,168
2017-04-02T06:11:38.074Z,168
2017-04-02T06:12:38.092Z,172
2017-04-02T06:13:37.816Z,176
2017-04-02T06:14:38.088Z,180
2017-04-02T06:15:39.342Z,192
2017-04-02T06:16:38.102Z,212
2017-04-02T06:17:38.100Z,224
2017-04-02T06:18:37.795Z,236
2017-04-02T06:19:38.167Z,252
2017-04-02T06:20:38.366Z,264
2017-04-02T06:21:37.818Z,280
2017-04-02T06:22:38.275Z,304
2017-04-02T06:23:37.870Z,336
2017-04-02T06:24:37.877Z,372
2017-04-02T06:25:38.147Z,412
2017-04-02T06:26:38.889Z,452
2017-04-02T06:27:38.154Z,492
2017-04-02T06:28:38.053Z,524
2017-04-02T06:29:38.321Z,556
2017-04-02T06:30:39.351Z,580
2017-04-02T06:31:38.226Z,588
2017-04-02T06:32:37.975Z,600
2017-04-02T06:33:38.187Z,624
2017-04-02T06:34:37.570Z,648
2017-04-02T06:35:38.202Z,676
2017-04-02T06:36:37.318Z,712
2017-04-02T06:37:39.266Z,760
2017-04-02T06:38:38.012Z,796
2017-04-02T06:39:38.224Z,852
2017-04-02T06:40:38.230Z,932
2017-04-02T06:41:39.079Z,992
2017-04-02T06:42:38.294Z,1032
2017-04-02T06:43:38.244Z,1056
2017-04-02T06:44:38.305Z,1064
2017-04-02T06:45:38.305Z,1100
2017-04-02T06:46:38.270Z,1208
2017-04-02T06:47:38.270Z,1444
2017-04-02T06:48:38.926Z,1904
2017-04-02T06:49:38.331Z,1968
2017-04-02T06:50:38.290Z,1496
2017-04-02T06:51:38.347Z,1264
2017-04-02T06:52:39.104Z,1152
2017-04-02T06:53:38.302Z,1124
2017-04-02T06:54:38.047Z,1124
2017-04-02T06:55:38.317Z,1140
2017-04-02T06:56:37.752Z,1196
2017-04-02T06:57:38.112Z,1216
2017-04-02T06:58:38.071Z,1156
2017-04-02T06:59:38.342Z,1116
2017-04-02T07:00:38.644Z,1096
2017-04-02T07:01:38.358Z,1080
2017-04-02T07:02:38.411Z,1060
2017-04-02T07:03:39.065Z,1056
2017-04-02T07:04:38.105Z,1076
2017-04-02T07:05:37.438Z,1136
2017-04-02T07:06:38.116Z,1216
2017-04-02T07:07:38.392Z,1292
2017-04-02T07:08:38.392Z,1304
2017-04-02T07:09:38.397Z,1332
2017-04-02T07:10:38.405Z,1440
2017-04-02T07:11:38.413Z,1504
2017-04-02T07:12:40.132Z,1460
2017-04-02T07:13:38.158Z,1416
2017-04-02T07:14:38.880Z,1456
2017-04-02T07:15:38.169Z,1536
2017-04-02T07:16:38.439Z,1756
2017-04-02T07:17:37.816Z,1896
2017-04-02T07:18:38.188Z,1908
2017-04-02T07:19:38.552Z,1904
2017-04-02T07:20:37.884Z,1948
2017-04-02T07:21:37.892Z,1972
2017-04-02T07:22:38.206Z,1984
2017-04-02T07:23:39.349Z,2000
2017-04-02T07:24:38.486Z,1980
2017-04-02T07:25:38.630Z,1884
2017-04-02T07:26:38.647Z,1868
2017-04-02T07:27:39.532Z,1900
2017-04-02T07:28:38.510Z,1924
2017-04-02T07:29:38.566Z,1992
2017-04-02T07:30:38.569Z,2056
2017-04-02T07:31:38.566Z,2100
2017-04-02T07:32:38.327Z,2096
2017-04-02T07:33:38.227Z,2020
2017-04-02T07:34:39.442Z,1896
2017-04-02T07:35:38.599Z,1840
2017-04-02T07:36:38.718Z,1768
2017-04-02T07:37:38.565Z,1728
2017-04-02T07:38:40.025Z,1696
2017-04-02T07:39:38.591Z,1760
2017-04-02T07:40:38.688Z,1844
2017-04-02T07:41:38.589Z,1964
2017-04-02T07:42:38.279Z,2024
2017-04-02T07:43:38.288Z,2072
2017-04-02T07:44:38.396Z,2100
2017-04-02T07:45:39.018Z,2076
2017-04-02T07:46:38.620Z,1972
2017-04-02T07:47:38.676Z,1880
2017-04-02T07:48:38.729Z,1844
2017-04-02T07:49:39.723Z,1852
2017-04-02T07:50:38.697Z,1916
2017-04-02T07:51:38.651Z,1928
2017-04-02T07:52:38.655Z,1916
2017-04-02T07:53:38.751Z,1944
2017-04-02T07:54:38.720Z,2036
2017-04-02T07:55:38.362Z,2016
2017-04-02T07:56:38.681Z,1992
2017-04-02T07:57:38.785Z,1972
2017-04-02T07:58:38.805Z,1996
2017-04-02T07:59:38.800Z,1980
2017-04-02T08:00:39.646Z,1956
2017-04-02T08:01:38.451Z,1944
2017-04-02T08:02:38.721Z,1916
2017-04-02T08:03:38.563Z,1892
2017-04-02T08:04:38.730Z,1888
2017-04-02T08:05:38.837Z,1884
2017-04-02T08:06:38.786Z,1868
2017-04-02T08:07:38.483Z,1872
2017-04-02T08:08:38.798Z,1860
2017-04-02T08:09:38.758Z,1848
2017-04-02T08:10:38.501Z,1876
2017-04-02T08:11:39.406Z,1948
2017-04-02T08:12:38.513Z,1964
2017-04-02T08:13:38.834Z,1980
2017-04-02T08:14:38.479Z,2000
2017-04-02T08:15:38.852Z,2000
2017-04-02T08:16:38.848Z,2020
2017-04-02T08:17:38.808Z,2040
2017-04-02T08:18:38.812Z,2028
2017-04-02T08:19:38.601Z,1956
2017-04-02T08:20:39.535Z,1936
2017-04-02T08:21:38.830Z,1908
2017-04-02T08:22:39.383Z,1856
2017-04-02T08:23:38.840Z,1816
2017-04-02T08:24:38.901Z,1900
2017-04-02T08:25:38.541Z,2004
2017-04-02T08:26:38.958Z,2076
2017-04-02T08:27:38.657Z,2232
2017-04-02T08:28:38.873Z,3996
2017-04-02T08:29:38.886Z,10128
2017-04-02T08:30:38.939Z,14176
2017-04-02T08:31:38.997Z,15360
2017-04-02T08:32:38.896Z,14880
2017-04-02T08:33:39.170Z,15520
2017-04-02T08:34:38.654Z,16480
2017-04-02T08:35:38.609Z,17696
2017-04-02T08:36:39.232Z,17408
2017-04-02T08:37:38.782Z,17504
2017-04-02T08:38:38.952Z,18848
2017-04-02T08:39:38.954Z,19232
2017-04-02T08:40:38.704Z,19264
2017-04-02T08:41:38.659Z,19136
2017-04-02T08:42:39.031Z,15936
2017-04-02T08:43:38.988Z,8396
2017-04-02T08:44:39.287Z,2956
2017-04-02T08:45:39.060Z,2832
2017-04-02T08:46:38.805Z,2768
2017-04-02T08:47:38.706Z,2708
2017-04-02T08:48:38.816Z,2720
2017-04-02T08:49:39.037Z,2616
2017-04-02T08:50:39.146Z,2544
2017-04-02T08:51:38.742Z,2544
2017-04-02T08:52:38.898Z,2560
2017-04-02T08:53:38.753Z,2556
2017-04-02T08:54:39.073Z,2484
2017-04-02T08:55:39.233Z,2552
2017-04-02T08:56:38.826Z,2540
2017-04-02T08:57:40.479Z,2508
2017-04-02T08:58:39.150Z,2488
2017-04-02T08:59:39.347Z,2436
2017-04-02T09:00:38.854Z,2432
2017-04-02T09:01:38.859Z,2308
2017-04-02T09:02:39.465Z,2404
2017-04-02T09:03:39.135Z,2384
2017-04-02T09:04:38.525Z,2384
2017-04-02T09:05:39.198Z,2368
2017-04-02T09:06:39.200Z,2360
2017-04-02T09:07:39.161Z,2356
2017-04-02T09:08:39.210Z,2328
2017-04-02T09:09:39.228Z,2256
2017-04-02T09:10:39.432Z,2176
2017-04-02T09:11:39.240Z,2012
2017-04-02T09:12:39.197Z,1732
2017-04-02T09:13:38.886Z,2156
2017-04-02T09:14:39.261Z,2200
2017-04-02T09:15:38.956Z,2164
2017-04-02T09:16:39.222Z,2136
2017-04-02T09:17:38.603Z,2116
2017-04-02T09:18:38.968Z,2088
2017-04-02T09:19:40.490Z,2076
2017-04-02T09:20:39.344Z,2088
2017-04-02T09:21:39.357Z,2088
2017-04-02T09:22:39.046Z,2160
2017-04-02T09:23:38.955Z,2108
2017-04-02T09:24:39.329Z,1852
2017-04-02T09:25:38.695Z,2128
2017-04-02T09:26:38.972Z,1732
2017-04-02T09:27:39.341Z,1524
2017-04-02T09:28:39.351Z,1500
2017-04-02T09:29:39.405Z,2108
2017-04-02T09:30:40.613Z,2184
2017-04-02T09:31:39.421Z,2092
2017-04-02T09:32:39.376Z,2176
2017-04-02T09:33:39.330Z,2168
2017-04-02T09:34:39.685Z,2112
2017-04-02T09:35:39.394Z,2088
2017-04-02T09:36:39.451Z,2192
2017-04-02T09:37:39.353Z,2196
2017-04-02T09:38:39.097Z,2076
2017-04-02T09:39:39.370Z,1940
2017-04-02T09:40:39.373Z,2076
2017-04-02T09:41:40.436Z,1980
2017-04-02T09:42:39.386Z,1916
2017-04-02T09:43:39.395Z,1984
2017-04-02T09:44:39.451Z,2004
2017-04-02T09:45:39.093Z,1940
2017-04-02T09:46:39.414Z,1920
2017-04-02T09:47:39.572Z,1972
2017-04-02T09:48:39.164Z,1928
2017-04-02T09:49:39.433Z,1872
2017-04-02T09:50:39.440Z,1992
2017-04-02T09:51:39.497Z,1320
2017-04-02T09:52:40.288Z,1956
2017-04-02T09:53:39.196Z,2020
2017-04-02T09:54:39.471Z,2124
2017-04-02T09:55:39.467Z,2236
2017-04-02T09:56:40.584Z,2380
2017-04-02T09:57:39.174Z,2256
2017-04-02T09:58:39.595Z,2108
2017-04-02T09:59:39.496Z,1952
2017-04-02T10:00:39.502Z,1864
2017-04-02T10:01:39.199Z,1892
2017-04-02T10:02:39.621Z,1196
2017-04-02T10:03:40.421Z,1084
2017-04-02T10:04:39.529Z,1312
2017-04-02T10:05:39.572Z,1732
2017-04-02T10:06:39.593Z,1592
2017-04-02T10:07:40.954Z,1544
2017-04-02T10:08:39.600Z,1584
2017-04-02T10:09:39.246Z,1520
2017-04-02T10:10:39.567Z,1096
2017-04-02T10:11:39.259Z,1096
2017-04-02T10:12:39.266Z,1080
2017-04-02T10:13:39.272Z,1040
2017-04-02T10:14:39.589Z,1596
2017-04-02T10:15:39.598Z,1720
2017-04-02T10:16:39.603Z,1776
2017-04-02T10:17:39.297Z,1156
2017-04-02T10:18:40.362Z,1720
2017-04-02T10:19:39.358Z,1744
2017-04-02T10:20:39.681Z,1736
2017-04-02T10:21:39.370Z,1772
2017-04-02T10:22:39.689Z,1708
2017-04-02T10:23:39.332Z,1680
2017-04-02T10:24:39.652Z,1664
2017-04-02T10:25:39.760Z,1736
2017-04-02T10:26:39.671Z,1780
2017-04-02T10:27:39.669Z,1700
2017-04-02T10:28:39.785Z,1720
2017-04-02T10:29:40.420Z,1756
2017-04-02T10:30:39.741Z,1756
2017-04-02T10:31:39.698Z,1848
2017-04-02T10:32:39.743Z,1852
2017-04-02T10:33:39.740Z,1804
2017-04-02T10:34:39.504Z,1752
2017-04-02T10:35:39.767Z,1724
2017-04-02T10:36:39.457Z,1724
2017-04-02T10:37:39.109Z,1744
2017-04-02T10:38:40.714Z,1728
2017-04-02T10:39:39.443Z,1708
2017-04-02T10:40:40.112Z,1712
2017-04-02T10:41:39.444Z,1680
2017-04-02T10:42:39.816Z,1684
2017-04-02T10:43:39.818Z,1620
2017-04-02T10:44:39.782Z,1580
2017-04-02T10:45:39.836Z,1600
2017-04-02T10:46:39.791Z,1568
2017-04-02T10:47:39.533Z,1540
2017-04-02T10:48:39.803Z,1540
2017-04-02T10:49:40.722Z,1612
2017-04-02T10:50:39.505Z,1656
2017-04-02T10:51:40.122Z,1620
2017-04-02T10:52:39.827Z,1576
2017-04-02T10:53:41.558Z,1452
2017-04-02T10:54:39.892Z,1380
2017-04-02T10:55:39.682Z,1472
2017-04-02T10:56:39.639Z,1004
2017-04-02T10:57:39.913Z,1420
2017-04-02T10:58:39.548Z,1412
2017-04-02T10:59:39.870Z,1456
2017-04-02T11:00:38.991Z,1536
2017-04-02T11:01:39.885Z,1484
2017-04-02T11:02:39.940Z,1348
2017-04-02T11:03:39.581Z,1360
2017-04-02T11:04:41.059Z,1428
2017-04-02T11:05:39.998Z,1324
2017-04-02T11:06:39.598Z,952
2017-04-02T11:07:39.922Z,1272
2017-04-02T11:08:39.618Z,1252
2017-04-02T11:09:39.990Z,1072
2017-04-02T11:10:39.938Z,884
2017-04-02T11:11:39.734Z,856
2017-04-02T11:12:40.002Z,852
2017-04-02T11:13:40.056Z,876
2017-04-02T11:14:39.701Z,904
2017-04-02T11:15:41.291Z,1264
2017-04-02T11:16:39.983Z,940
2017-04-02T11:17:40.030Z,824
2017-04-02T11:18:40.093Z,1272
2017-04-02T11:19:39.682Z,1076
2017-04-02T11:20:39.999Z,1184
2017-04-02T11:21:39.694Z,1296
2017-04-02T11:22:40.016Z,1260
2017-04-02T11:23:40.072Z,1244
2017-04-02T11:24:39.759Z,1172
2017-04-02T11:25:39.718Z,940
2017-04-02T11:26:41.030Z,1308
2017-04-02T11:27:39.784Z,1208
2017-04-02T11:28:40.103Z,1080
2017-04-02T11:29:40.104Z,1056
2017-04-02T11:30:40.060Z,900
2017-04-02T11:31:40.071Z,864
2017-04-02T11:32:40.073Z,840
2017-04-02T11:33:40.128Z,844
2017-04-02T11:34:40.093Z,1240
2017-04-02T11:35:39.835Z,1316
2017-04-02T11:36:39.784Z,1320
2017-04-02T11:37:40.947Z,1324
2017-04-02T11:38:40.108Z,1328
2017-04-02T11:39:39.861Z,1056
2017-04-02T11:40:40.133Z,892
2017-04-02T11:41:39.818Z,1140
2017-04-02T11:42:40.237Z,1356
2017-04-02T11:43:40.141Z,1392
2017-04-02T11:44:40.206Z,1392
2017-04-02T11:45:40.152Z,1244
2017-04-02T11:46:39.847Z,1228
2017-04-02T11:47:40.168Z,1032
2017-04-02T11:48:40.771Z,964
2017-04-02T11:49:40.281Z,1304
2017-04-02T11:50:40.286Z,1348
2017-04-02T11:51:39.880Z,1336
2017-04-02T11:52:39.987Z,948
2017-04-02T11:53:39.887Z,932
2017-04-02T11:54:40.210Z,1140
2017-04-02T11:55:40.220Z,1288
2017-04-02T11:56:40.221Z,1300
2017-04-02T11:57:39.913Z,1292
2017-04-02T11:58:39.956Z,968
2017-04-02T11:59:40.740Z,872
2017-04-02T12:00:39.990Z,936
2017-04-02T12:01:40.257Z,1164
2017-04-02T12:02:40.308Z,1160
2017-04-02T12:03:40.262Z,1152
2017-04-02T12:04:40.279Z,928
2017-04-02T12:05:40.275Z,796
2017-04-02T12:06:40.383Z,740
2017-04-02T12:07:40.024Z,724
2017-04-02T12:08:40.344Z,1020
2017-04-02T12:09:39.986Z,1016
2017-04-02T12:10:40.509Z,984
2017-04-02T12:11:40.102Z,1020
2017-04-02T12:12:41.789Z,1040
2017-04-02T12:13:40.012Z,1072
2017-04-02T12:14:40.632Z,1088
2017-04-02T12:15:40.388Z,1124
2017-04-02T12:16:40.342Z,1120
2017-04-02T12:17:40.399Z,1120
2017-04-02T12:18:40.048Z,1112
2017-04-02T12:19:40.364Z,1100
2017-04-02T12:20:40.416Z,1076
2017-04-02T12:21:40.062Z,1044
2017-04-02T12:22:40.387Z,1016
2017-04-02T12:23:41.539Z,992
2017-04-02T12:24:40.442Z,992
2017-04-02T12:25:40.448Z,988
2017-04-02T12:26:40.091Z,980
2017-04-02T12:27:40.098Z,952
2017-04-02T12:28:40.154Z,708
2017-04-02T12:29:40.109Z,672
2017-04-02T12:30:40.431Z,672
2017-04-02T12:31:40.434Z,692
2017-04-02T12:32:40.127Z,736
2017-04-02T12:33:40.238Z,700
2017-04-02T12:34:41.654Z,708
2017-04-02T12:35:40.597Z,948
2017-04-02T12:36:40.515Z,908
2017-04-02T12:37:40.519Z,896
2017-04-02T12:38:40.168Z,936
2017-04-02T12:39:40.221Z,808
2017-04-02T12:40:39.914Z,912
2017-04-02T12:41:39.872Z,932
2017-04-02T12:42:40.239Z,932
2017-04-02T12:43:40.556Z,708
2017-04-02T12:44:40.249Z,852
2017-04-02T12:45:41.519Z,868
2017-04-02T12:46:40.573Z,876
2017-04-02T12:47:40.531Z,828
2017-04-02T12:48:40.535Z,760
2017-04-02T12:49:40.601Z,672
2017-04-02T12:50:40.291Z,628
2017-04-02T12:51:40.652Z,616
2017-04-02T12:52:40.663Z,764
2017-04-02T12:53:40.574Z,768
2017-04-02T12:54:40.575Z,752
2017-04-02T12:55:40.629Z,764
2017-04-02T12:56:41.438Z,768
2017-04-02T12:57:40.643Z,776
2017-04-02T12:58:40.652Z,788
2017-04-02T12:59:40.655Z,792
2017-04-02T13:00:41.665Z,832
2017-04-02T13:01:40.303Z,640
2017-04-02T13:02:40.313Z,740
2017-04-02T13:03:40.052Z,608
2017-04-02T13:04:40.426Z,684
2017-04-02T13:05:40.692Z,600
2017-04-02T13:06:40.333Z,604
2017-04-02T13:07:40.989Z,620
2017-04-02T13:08:40.346Z,620
2017-04-02T13:09:40.402Z,604
2017-04-02T13:10:40.779Z,600
2017-04-02T13:11:41.526Z,608
2017-04-02T13:12:40.684Z,624
2017-04-02T13:13:40.689Z,652
2017-04-02T13:14:40.750Z,868
2017-04-02T13:15:40.753Z,904
2017-04-02T13:16:40.707Z,940
2017-04-02T13:17:40.722Z,952
2017-04-02T13:18:41.569Z,928
2017-04-02T13:19:40.722Z,900
2017-04-02T13:20:40.620Z,908
2017-04-02T13:21:40.901Z,920
2017-04-02T13:22:41.930Z,956
2017-04-02T13:23:40.748Z,980
2017-04-02T13:24:40.439Z,984
2017-04-02T13:25:40.513Z,960
2017-04-02T13:26:40.768Z,940
2017-04-02T13:27:40.879Z,920
2017-04-02T13:28:40.784Z,912
2017-04-02T13:29:40.472Z,904
2017-04-02T13:30:40.794Z,892
2017-04-02T13:31:40.824Z,864
2017-04-02T13:32:40.539Z,836
2017-04-02T13:33:42.061Z,816
2017-04-02T13:34:40.813Z,780
2017-04-02T13:35:40.555Z,856
2017-04-02T13:36:40.833Z,856
2017-04-02T13:37:40.577Z,808
2017-04-02T13:38:40.221Z,796
2017-04-02T13:39:40.850Z,736
2017-04-02T13:40:40.594Z,760
2017-04-02T13:41:40.549Z,800
2017-04-02T13:42:41.114Z,812
2017-04-02T13:43:40.922Z,820
2017-04-02T13:44:41.294Z,812
2017-04-02T13:45:40.986Z,792
2017-04-02T13:46:40.991Z,784
2017-04-02T13:47:40.635Z,780
2017-04-02T13:48:40.630Z,796
2017-04-02T13:49:41.013Z,808
2017-04-02T13:50:40.651Z,824
2017-04-02T13:51:41.269Z,844
2017-04-02T13:52:40.924Z,856
2017-04-02T13:53:42.464Z,864
2017-04-02T13:54:41.041Z,860
2017-04-02T13:55:40.677Z,860
2017-04-02T13:56:40.954Z,880
2017-04-02T13:57:41.192Z,880
2017-04-02T13:58:40.974Z,892